sensor_id;sensor_type;location;lat;lon;timestamp;P1;durP1;ratioP1;P2;durP2;ratioP2
11066;SDS011;29763;50.904;5.530;2023-02-19T00:01:42;7.35;;;6.28;;
11066;SDS011;29763;50.904;5.530;2023-02-19T00:04:16;7.55;;;6.25;;
11066;SDS011;29763;50.904;5.530;2023-02-19T00:06:43;6.93;;;6.05;;
11066;SDS011;29763;50.904;5.530;2023-02-19T00:09:14;7.65;;;6.95;;
11066;SDS011;29763;50.904;5.530;2023-02-19T00:11:46;7.25;;;6.55;;
11066;SDS011;29763;50.904;5.530;2023-02-19T00:14:15;7.78;;;6.85;;
11066;SDS011;29763;50.904;5.530;2023-02-19T00:16:43;7.60;;;6.65;;
11066;SDS011;29763;50.904;5.530;2023-02-19T00:19:29;7.30;;;6.65;;
11066;SDS011;29763;50.904;5.530;2023-02-19T00:21:56;7.50;;;6.70;;
11066;SDS011;29763;50.904;5.530;2023-02-19T00:24:22;7.75;;;6.95;;
11066;SDS011;29763;50.904;5.530;2023-02-19T00:26:49;7.43;;;6.47;;
11066;SDS011;29763;50.904;5.530;2023-02-19T00:29:18;7.75;;;6.85;;
11066;SDS011;29763;50.904;5.530;2023-02-19T00:31:45;8.02;;;7.22;;
11066;SDS011;29763;50.904;5.530;2023-02-19T00:34:12;7.65;;;6.95;;
11066;SDS011;29763;50.904;5.530;2023-02-19T00:36:39;9.18;;;7.50;;
11066;SDS011;29763;50.904;5.530;2023-02-19T00:39:07;7.43;;;6.72;;
11066;SDS011;29763;50.904;5.530;2023-02-19T00:41:38;8.02;;;7.22;;
11066;SDS011;29763;50.904;5.530;2023-02-19T00:44:05;7.70;;;6.88;;
11066;SDS011;29763;50.904;5.530;2023-02-19T00:46:36;7.82;;;6.95;;
11066;SDS011;29763;50.904;5.530;2023-02-19T00:49:05;7.97;;;7.18;;
11066;SDS011;29763;50.904;5.530;2023-02-19T00:51:36;9.15;;;7.00;;
11066;SDS011;29763;50.904;5.530;2023-02-19T00:54:02;8.95;;;7.45;;
11066;SDS011;29763;50.904;5.530;2023-02-19T00:56:31;9.43;;;7.75;;
11066;SDS011;29763;50.904;5.530;2023-02-19T00:58:57;7.47;;;6.72;;
11066;SDS011;29763;50.904;5.530;2023-02-19T01:01:23;8.43;;;7.03;;
11066;SDS011;29763;50.904;5.530;2023-02-19T01:03:48;7.20;;;6.50;;
11066;SDS011;29763;50.904;5.530;2023-02-19T01:06:15;7.72;;;6.93;;
11066;SDS011;29763;50.904;5.530;2023-02-19T01:08:42;9.30;;;7.57;;
11066;SDS011;29763;50.904;5.530;2023-02-19T01:11:08;7.75;;;6.88;;
11066;SDS011;29763;50.904;5.530;2023-02-19T01:13:34;7.80;;;7.00;;
11066;SDS011;29763;50.904;5.530;2023-02-19T01:16:08;7.80;;;7.00;;
11066;SDS011;29763;50.904;5.530;2023-02-19T01:18:43;7.85;;;7.03;;
11066;SDS011;29763;50.904;5.530;2023-02-19T01:21:14;7.45;;;6.75;;
11066;SDS011;29763;50.904;5.530;2023-02-19T01:23:41;8.23;;;7.03;;
11066;SDS011;29763;50.904;5.530;2023-02-19T01:26:09;8.02;;;7.25;;
11066;SDS011;29763;50.904;5.530;2023-02-19T01:28:37;8.23;;;7.18;;
11066;SDS011;29763;50.904;5.530;2023-02-19T01:31:06;7.53;;;6.75;;
11066;SDS011;29763;50.904;5.530;2023-02-19T01:33:33;7.32;;;6.63;;
11066;SDS011;29763;50.904;5.530;2023-02-19T01:36:01;7.95;;;6.72;;
11066;SDS011;29763;50.904;5.530;2023-02-19T01:38:28;8.43;;;7.43;;
11066;SDS011;29763;50.904;5.530;2023-02-19T01:41:00;10.27;;;7.88;;
11066;SDS011;29763;50.904;5.530;2023-02-19T01:43:33;7.78;;;6.97;;
11066;SDS011;29763;50.904;5.530;2023-02-19T01:46:02;11.27;;;7.50;;
11066;SDS011;29763;50.904;5.530;2023-02-19T01:48:32;9.52;;;7.53;;
11066;SDS011;29763;50.904;5.530;2023-02-19T01:53:38;8.15;;;7.30;;
11066;SDS011;29763;50.904;5.530;2023-02-19T01:56:09;9.18;;;7.40;;
11066;SDS011;29763;50.904;5.530;2023-02-19T01:58:37;8.63;;;7.72;;
11066;SDS011;29763;50.904;5.530;2023-02-19T02:01:05;11.35;;;8.18;;
11066;SDS011;29763;50.904;5.530;2023-02-19T02:03:32;10.30;;;7.97;;
11066;SDS011;29763;50.904;5.530;2023-02-19T02:08:39;10.98;;;8.05;;
11066;SDS011;29763;50.904;5.530;2023-02-19T02:11:27;11.30;;;7.97;;
11066;SDS011;29763;50.904;5.530;2023-02-19T02:13:54;8.90;;;7.82;;
11066;SDS011;29763;50.904;5.530;2023-02-19T02:27:58;11.43;;;8.00;;
11066;SDS011;29763;50.904;5.530;2023-02-19T02:36:30;11.07;;;7.45;;
11066;SDS011;29763;50.904;5.530;2023-02-19T02:39:02;10.43;;;7.40;;
11066;SDS011;29763;50.904;5.530;2023-02-19T02:41:33;10.02;;;7.03;;
11066;SDS011;29763;50.904;5.530;2023-02-19T02:43:59;12.57;;;7.28;;
11066;SDS011;29763;50.904;5.530;2023-02-19T02:46:31;12.18;;;7.18;;
11066;SDS011;29763;50.904;5.530;2023-02-19T02:49:04;9.27;;;7.05;;
11066;SDS011;29763;50.904;5.530;2023-02-19T02:51:45;9.80;;;6.78;;
11066;SDS011;29763;50.904;5.530;2023-02-19T02:57:00;11.75;;;7.70;;
11066;SDS011;29763;50.904;5.530;2023-02-19T02:59:28;12.15;;;7.13;;
11066;SDS011;29763;50.904;5.530;2023-02-19T03:02:03;10.38;;;7.45;;
11066;SDS011;29763;50.904;5.530;2023-02-19T03:04:50;11.15;;;7.00;;
11066;SDS011;29763;50.904;5.530;2023-02-19T03:07:44;9.75;;;7.07;;
11066;SDS011;29763;50.904;5.530;2023-02-19T03:10:40;8.38;;;7.13;;
11066;SDS011;29763;50.904;5.530;2023-02-19T03:13:10;10.85;;;6.57;;
11066;SDS011;29763;50.904;5.530;2023-02-19T03:16:00;9.50;;;7.22;;
11066;SDS011;29763;50.904;5.530;2023-02-19T03:18:52;12.48;;;7.13;;
11066;SDS011;29763;50.904;5.530;2023-02-19T03:21:39;10.85;;;6.90;;
11066;SDS011;29763;50.904;5.530;2023-02-19T03:24:11;11.57;;;6.97;;
11066;SDS011;29763;50.904;5.530;2023-02-19T03:26:57;11.93;;;7.57;;
11066;SDS011;29763;50.904;5.530;2023-02-19T03:29:25;12.40;;;6.53;;
11066;SDS011;29763;50.904;5.530;2023-02-19T03:31:54;9.95;;;6.80;;
11066;SDS011;29763;50.904;5.530;2023-02-19T03:34:28;12.45;;;6.68;;
11066;SDS011;29763;50.904;5.530;2023-02-19T03:39:56;11.43;;;7.32;;
11066;SDS011;29763;50.904;5.530;2023-02-19T03:42:30;12.27;;;7.15;;
11066;SDS011;29763;50.904;5.530;2023-02-19T03:50:58;9.48;;;6.03;;
11066;SDS011;29763;50.904;5.530;2023-02-19T04:01:23;8.98;;;5.60;;
11066;SDS011;29763;50.904;5.530;2023-02-19T04:06:35;10.95;;;5.40;;
11066;SDS011;29763;50.904;5.530;2023-02-19T04:09:07;10.50;;;4.82;;
11066;SDS011;29763;50.904;5.530;2023-02-19T04:11:36;10.50;;;5.10;;
11066;SDS011;29763;50.904;5.530;2023-02-19T04:16:43;8.88;;;4.70;;
11066;SDS011;29763;50.904;5.530;2023-02-19T04:19:14;8.63;;;4.53;;
11066;SDS011;29763;50.904;5.530;2023-02-19T04:21:44;8.73;;;4.47;;
11066;SDS011;29763;50.904;5.530;2023-02-19T04:24:28;8.88;;;4.15;;
11066;SDS011;29763;50.904;5.530;2023-02-19T04:26:58;6.25;;;3.55;;
11066;SDS011;29763;50.904;5.530;2023-02-19T04:29:25;7.85;;;4.20;;
11066;SDS011;29763;50.904;5.530;2023-02-19T04:31:50;9.68;;;4.13;;
11066;SDS011;29763;50.904;5.530;2023-02-19T04:34:16;9.13;;;3.75;;
11066;SDS011;29763;50.904;5.530;2023-02-19T04:36:42;9.50;;;3.70;;
11066;SDS011;29763;50.904;5.530;2023-02-19T04:39:08;9.93;;;4.03;;
11066;SDS011;29763;50.904;5.530;2023-02-19T04:41:35;9.98;;;3.97;;
11066;SDS011;29763;50.904;5.530;2023-02-19T04:44:00;12.25;;;3.97;;
11066;SDS011;29763;50.904;5.530;2023-02-19T04:46:26;9.10;;;3.70;;
11066;SDS011;29763;50.904;5.530;2023-02-19T04:48:53;9.95;;;3.80;;
11066;SDS011;29763;50.904;5.530;2023-02-19T04:51:19;9.55;;;3.60;;
11066;SDS011;29763;50.904;5.530;2023-02-19T04:53:45;9.20;;;3.88;;
11066;SDS011;29763;50.904;5.530;2023-02-19T04:56:12;10.82;;;3.80;;
11066;SDS011;29763;50.904;5.530;2023-02-19T04:58:39;9.35;;;3.70;;
11066;SDS011;29763;50.904;5.530;2023-02-19T05:01:06;9.05;;;3.55;;
11066;SDS011;29763;50.904;5.530;2023-02-19T05:03:39;7.90;;;3.20;;
11066;SDS011;29763;50.904;5.530;2023-02-19T05:06:09;7.57;;;3.47;;
11066;SDS011;29763;50.904;5.530;2023-02-19T05:08:37;6.05;;;3.22;;
11066;SDS011;29763;50.904;5.530;2023-02-19T05:11:04;9.90;;;3.53;;
11066;SDS011;29763;50.904;5.530;2023-02-19T05:13:32;11.13;;;3.88;;
11066;SDS011;29763;50.904;5.530;2023-02-19T05:16:02;10.50;;;3.30;;
11066;SDS011;29763;50.904;5.530;2023-02-19T05:18:33;11.15;;;3.72;;
11066;SDS011;29763;50.904;5.530;2023-02-19T05:20:59;9.02;;;3.45;;
11066;SDS011;29763;50.904;5.530;2023-02-19T05:23:26;10.15;;;3.50;;
11066;SDS011;29763;50.904;5.530;2023-02-19T05:25:52;8.68;;;3.42;;
11066;SDS011;29763;50.904;5.530;2023-02-19T05:28:19;7.93;;;3.53;;
11066;SDS011;29763;50.904;5.530;2023-02-19T05:30:52;9.40;;;3.95;;
11066;SDS011;29763;50.904;5.530;2023-02-19T05:33:21;11.90;;;3.97;;
11066;SDS011;29763;50.904;5.530;2023-02-19T05:35:51;11.68;;;3.55;;
11066;SDS011;29763;50.904;5.530;2023-02-19T05:38:17;9.98;;;3.67;;
11066;SDS011;29763;50.904;5.530;2023-02-19T05:40:44;11.23;;;3.63;;
11066;SDS011;29763;50.904;5.530;2023-02-19T05:43:11;9.60;;;3.67;;
11066;SDS011;29763;50.904;5.530;2023-02-19T05:45:37;8.18;;;3.30;;
11066;SDS011;29763;50.904;5.530;2023-02-19T05:48:05;8.52;;;3.47;;
11066;SDS011;29763;50.904;5.530;2023-02-19T05:50:32;9.55;;;3.50;;
11066;SDS011;29763;50.904;5.530;2023-02-19T05:53:00;7.72;;;3.33;;
11066;SDS011;29763;50.904;5.530;2023-02-19T05:55:32;8.77;;;3.50;;
11066;SDS011;29763;50.904;5.530;2023-02-19T05:57:59;8.10;;;3.55;;
11066;SDS011;29763;50.904;5.530;2023-02-19T06:00:25;11.50;;;3.45;;
11066;SDS011;29763;50.904;5.530;2023-02-19T06:02:52;10.65;;;3.22;;
11066;SDS011;29763;50.904;5.530;2023-02-19T06:05:18;12.43;;;3.60;;
11066;SDS011;29763;50.904;5.530;2023-02-19T06:07:44;11.20;;;3.72;;
11066;SDS011;29763;50.904;5.530;2023-02-19T06:10:10;8.77;;;3.22;;
11066;SDS011;29763;50.904;5.530;2023-02-19T06:12:37;10.32;;;3.30;;
11066;SDS011;29763;50.904;5.530;2023-02-19T06:15:05;10.68;;;3.30;;
11066;SDS011;29763;50.904;5.530;2023-02-19T06:17:31;10.98;;;3.40;;
11066;SDS011;29763;50.904;5.530;2023-02-19T06:19:58;8.60;;;3.35;;
11066;SDS011;29763;50.904;5.530;2023-02-19T06:22:24;9.98;;;3.72;;
11066;SDS011;29763;50.904;5.530;2023-02-19T06:24:51;10.05;;;3.33;;
11066;SDS011;29763;50.904;5.530;2023-02-19T06:27:18;11.13;;;3.83;;
11066;SDS011;29763;50.904;5.530;2023-02-19T06:29:44;12.40;;;3.58;;
11066;SDS011;29763;50.904;5.530;2023-02-19T06:32:09;14.07;;;3.58;;
11066;SDS011;29763;50.904;5.530;2023-02-19T06:34:35;11.75;;;3.85;;
11066;SDS011;29763;50.904;5.530;2023-02-19T06:37:02;12.93;;;3.83;;
11066;SDS011;29763;50.904;5.530;2023-02-19T06:39:28;10.48;;;3.60;;
11066;SDS011;29763;50.904;5.530;2023-02-19T06:41:55;11.80;;;3.55;;
11066;SDS011;29763;50.904;5.530;2023-02-19T06:44:23;12.63;;;3.53;;
11066;SDS011;29763;50.904;5.530;2023-02-19T06:46:49;13.90;;;3.70;;
11066;SDS011;29763;50.904;5.530;2023-02-19T06:49:15;14.38;;;3.97;;
11066;SDS011;29763;50.904;5.530;2023-02-19T06:51:43;12.40;;;3.95;;
11066;SDS011;29763;50.904;5.530;2023-02-19T06:54:08;15.50;;;5.05;;
11066;SDS011;29763;50.904;5.530;2023-02-19T06:56:41;12.13;;;4.18;;
11066;SDS011;29763;50.904;5.530;2023-02-19T06:59:08;12.55;;;3.85;;
11066;SDS011;29763;50.904;5.530;2023-02-19T07:01:37;11.98;;;4.15;;
11066;SDS011;29763;50.904;5.530;2023-02-19T07:04:04;11.13;;;3.65;;
11066;SDS011;29763;50.904;5.530;2023-02-19T07:06:32;14.05;;;4.28;;
11066;SDS011;29763;50.904;5.530;2023-02-19T07:08:59;15.10;;;4.50;;
11066;SDS011;29763;50.904;5.530;2023-02-19T07:11:25;13.95;;;4.32;;
11066;SDS011;29763;50.904;5.530;2023-02-19T07:14:01;13.30;;;3.65;;
11066;SDS011;29763;50.904;5.530;2023-02-19T07:16:29;13.77;;;4.53;;
11066;SDS011;29763;50.904;5.530;2023-02-19T07:18:55;16.17;;;4.90;;
11066;SDS011;29763;50.904;5.530;2023-02-19T07:21:22;13.20;;;3.70;;
11066;SDS011;29763;50.904;5.530;2023-02-19T07:23:48;14.05;;;3.85;;
11066;SDS011;29763;50.904;5.530;2023-02-19T07:26:15;17.38;;;3.90;;
11066;SDS011;29763;50.904;5.530;2023-02-19T07:28:45;12.43;;;3.50;;
11066;SDS011;29763;50.904;5.530;2023-02-19T07:31:15;12.88;;;4.13;;
11066;SDS011;29763;50.904;5.530;2023-02-19T07:33:42;13.25;;;3.92;;
11066;SDS011;29763;50.904;5.530;2023-02-19T07:36:08;7.80;;;3.72;;
11066;SDS011;29763;50.904;5.530;2023-02-19T07:38:35;14.43;;;3.75;;
11066;SDS011;29763;50.904;5.530;2023-02-19T07:41:02;12.98;;;3.83;;
11066;SDS011;29763;50.904;5.530;2023-02-19T07:43:30;12.73;;;3.78;;
11066;SDS011;29763;50.904;5.530;2023-02-19T07:46:10;8.77;;;3.50;;
11066;SDS011;29763;50.904;5.530;2023-02-19T07:48:37;12.45;;;3.80;;
11066;SDS011;29763;50.904;5.530;2023-02-19T07:51:05;9.48;;;3.30;;
11066;SDS011;29763;50.904;5.530;2023-02-19T07:53:32;12.70;;;4.18;;
11066;SDS011;29763;50.904;5.530;2023-02-19T07:55:59;11.82;;;3.45;;
11066;SDS011;29763;50.904;5.530;2023-02-19T07:58:30;7.15;;;3.50;;
11066;SDS011;29763;50.904;5.530;2023-02-19T08:01:04;13.80;;;3.67;;
11066;SDS011;29763;50.904;5.530;2023-02-19T08:03:35;13.82;;;4.25;;
11066;SDS011;29763;50.904;5.530;2023-02-19T08:06:02;12.75;;;4.22;;
11066;SDS011;29763;50.904;5.530;2023-02-19T08:08:29;11.20;;;3.80;;
11066;SDS011;29763;50.904;5.530;2023-02-19T08:10:58;13.35;;;4.18;;
11066;SDS011;29763;50.904;5.530;2023-02-19T08:13:47;11.25;;;3.78;;
11066;SDS011;29763;50.904;5.530;2023-02-19T08:16:15;12.60;;;3.67;;
11066;SDS011;29763;50.904;5.530;2023-02-19T08:18:44;11.27;;;3.88;;
11066;SDS011;29763;50.904;5.530;2023-02-19T08:21:11;12.63;;;4.35;;
11066;SDS011;29763;50.904;5.530;2023-02-19T08:23:38;14.02;;;4.38;;
11066;SDS011;29763;50.904;5.530;2023-02-19T08:26:04;13.50;;;4.05;;
11066;SDS011;29763;50.904;5.530;2023-02-19T08:28:30;15.60;;;4.68;;
11066;SDS011;29763;50.904;5.530;2023-02-19T08:31:00;11.00;;;4.05;;
11066;SDS011;29763;50.904;5.530;2023-02-19T08:33:28;11.90;;;3.83;;
11066;SDS011;29763;50.904;5.530;2023-02-19T08:36:00;14.38;;;4.38;;
11066;SDS011;29763;50.904;5.530;2023-02-19T08:38:28;12.25;;;4.43;;
11066;SDS011;29763;50.904;5.530;2023-02-19T08:40:54;10.82;;;4.28;;
11066;SDS011;29763;50.904;5.530;2023-02-19T08:43:20;11.27;;;4.35;;
11066;SDS011;29763;50.904;5.530;2023-02-19T08:45:46;15.20;;;4.50;;
11066;SDS011;29763;50.904;5.530;2023-02-19T08:48:12;10.25;;;4.80;;
11066;SDS011;29763;50.904;5.530;2023-02-19T08:50:44;12.93;;;5.00;;
11066;SDS011;29763;50.904;5.530;2023-02-19T08:53:09;10.45;;;4.75;;
11066;SDS011;29763;50.904;5.530;2023-02-19T08:55:37;12.65;;;4.85;;
11066;SDS011;29763;50.904;5.530;2023-02-19T08:58:03;9.52;;;4.55;;
11066;SDS011;29763;50.904;5.530;2023-02-19T09:00:29;13.70;;;5.25;;
11066;SDS011;29763;50.904;5.530;2023-02-19T09:02:56;13.98;;;4.65;;
11066;SDS011;29763;50.904;5.530;2023-02-19T09:05:33;13.65;;;4.97;;
11066;SDS011;29763;50.904;5.530;2023-02-19T09:07:58;11.50;;;4.63;;
11066;SDS011;29763;50.904;5.530;2023-02-19T09:10:24;16.38;;;4.70;;
11066;SDS011;29763;50.904;5.530;2023-02-19T09:12:54;12.57;;;5.45;;
11066;SDS011;29763;50.904;5.530;2023-02-19T09:15:20;13.02;;;5.00;;
11066;SDS011;29763;50.904;5.530;2023-02-19T09:17:55;15.50;;;5.65;;
11066;SDS011;29763;50.904;5.530;2023-02-19T09:20:21;14.38;;;5.30;;
11066;SDS011;29763;50.904;5.530;2023-02-19T09:22:48;12.15;;;5.45;;
11066;SDS011;29763;50.904;5.530;2023-02-19T09:25:13;13.38;;;5.43;;
11066;SDS011;29763;50.904;5.530;2023-02-19T09:27:39;13.77;;;5.13;;
11066;SDS011;29763;50.904;5.530;2023-02-19T09:30:06;11.18;;;4.93;;
11066;SDS011;29763;50.904;5.530;2023-02-19T09:32:32;13.57;;;5.18;;
11066;SDS011;29763;50.904;5.530;2023-02-19T09:34:58;14.75;;;5.78;;
11066;SDS011;29763;50.904;5.530;2023-02-19T09:37:24;15.20;;;5.55;;
11066;SDS011;29763;50.904;5.530;2023-02-19T09:39:52;14.48;;;5.20;;
11066;SDS011;29763;50.904;5.530;2023-02-19T09:42:22;14.65;;;5.47;;
11066;SDS011;29763;50.904;5.530;2023-02-19T09:44:52;13.85;;;5.10;;
11066;SDS011;29763;50.904;5.530;2023-02-19T09:47:20;12.75;;;5.63;;
11066;SDS011;29763;50.904;5.530;2023-02-19T09:50:00;18.95;;;5.70;;
11066;SDS011;29763;50.904;5.530;2023-02-19T09:55:20;10.43;;;4.97;;
11066;SDS011;29763;50.904;5.530;2023-02-19T09:58:13;15.82;;;6.10;;
11066;SDS011;29763;50.904;5.530;2023-02-19T10:00:56;11.05;;;5.85;;
11066;SDS011;29763;50.904;5.530;2023-02-19T10:03:26;20.27;;;6.75;;
11066;SDS011;29763;50.904;5.530;2023-02-19T10:05:58;17.08;;;6.30;;
11066;SDS011;29763;50.904;5.530;2023-02-19T10:08:31;15.70;;;6.15;;
11066;SDS011;29763;50.904;5.530;2023-02-19T10:11:00;12.40;;;5.75;;
11066;SDS011;29763;50.904;5.530;2023-02-19T10:13:32;18.02;;;6.57;;
11066;SDS011;29763;50.904;5.530;2023-02-19T10:16:03;11.63;;;5.50;;
11066;SDS011;29763;50.904;5.530;2023-02-19T10:18:35;9.93;;;5.70;;
11066;SDS011;29763;50.904;5.530;2023-02-19T10:21:05;12.35;;;5.60;;
11066;SDS011;29763;50.904;5.530;2023-02-19T10:23:33;14.60;;;5.88;;
11066;SDS011;29763;50.904;5.530;2023-02-19T10:25:59;10.18;;;5.25;;
11066;SDS011;29763;50.904;5.530;2023-02-19T10:28:29;14.52;;;5.18;;
11066;SDS011;29763;50.904;5.530;2023-02-19T10:31:03;12.13;;;5.10;;
11066;SDS011;29763;50.904;5.530;2023-02-19T10:33:41;15.05;;;4.93;;
11066;SDS011;29763;50.904;5.530;2023-02-19T10:36:31;10.85;;;5.40;;
11066;SDS011;29763;50.904;5.530;2023-02-19T10:38:58;8.90;;;4.72;;
11066;SDS011;29763;50.904;5.530;2023-02-19T10:41:30;9.93;;;4.97;;
11066;SDS011;29763;50.904;5.530;2023-02-19T10:46:49;11.82;;;5.35;;
11066;SDS011;29763;50.904;5.530;2023-02-19T10:51:58;12.80;;;5.88;;
11066;SDS011;29763;50.904;5.530;2023-02-19T10:54:32;11.52;;;5.70;;
11066;SDS011;29763;50.904;5.530;2023-02-19T10:57:24;12.95;;;6.35;;
11066;SDS011;29763;50.904;5.530;2023-02-19T11:02:47;11.82;;;6.18;;
11066;SDS011;29763;50.904;5.530;2023-02-19T11:05:18;12.65;;;6.32;;
11066;SDS011;29763;50.904;5.530;2023-02-19T11:07:53;13.40;;;6.18;;
11066;SDS011;29763;50.904;5.530;2023-02-19T11:10:32;7.65;;;5.28;;
11066;SDS011;29763;50.904;5.530;2023-02-19T11:13:13;13.30;;;5.80;;
11066;SDS011;29763;50.904;5.530;2023-02-19T11:15:42;14.23;;;6.40;;
11066;SDS011;29763;50.904;5.530;2023-02-19T11:18:22;13.48;;;5.72;;
11066;SDS011;29763;50.904;5.530;2023-02-19T11:21:00;11.68;;;5.50;;
11066;SDS011;29763;50.904;5.530;2023-02-19T11:25:59;8.88;;;5.55;;
11066;SDS011;29763;50.904;5.530;2023-02-19T11:28:36;10.30;;;5.10;;
11066;SDS011;29763;50.904;5.530;2023-02-19T11:33:59;9.70;;;5.20;;
11066;SDS011;29763;50.904;5.530;2023-02-19T11:37:31;12.88;;;5.60;;
11066;SDS011;29763;50.904;5.530;2023-02-19T11:39:42;10.35;;;5.57;;
11066;SDS011;29763;50.904;5.530;2023-02-19T11:42:53;11.30;;;5.50;;
11066;SDS011;29763;50.904;5.530;2023-02-19T11:47:59;11.88;;;6.15;;
11066;SDS011;29763;50.904;5.530;2023-02-19T11:50:31;9.85;;;6.15;;
11066;SDS011;29763;50.904;5.530;2023-02-19T11:56:36;11.10;;;7.43;;
11066;SDS011;29763;50.904;5.530;2023-02-19T11:58:59;15.00;;;8.10;;
11066;SDS011;29763;50.904;5.530;2023-02-19T12:13:02;11.27;;;8.23;;
11066;SDS011;29763;50.904;5.530;2023-02-19T12:15:58;11.68;;;8.18;;
11066;SDS011;29763;50.904;5.530;2023-02-19T12:36:11;9.32;;;7.07;;
11066;SDS011;29763;50.904;5.530;2023-02-19T12:38:52;13.00;;;7.45;;
11066;SDS011;29763;50.904;5.530;2023-02-19T12:44:46;13.48;;;7.50;;
11066;SDS011;29763;50.904;5.530;2023-02-19T12:47:24;14.77;;;8.23;;
11066;SDS011;29763;50.904;5.530;2023-02-19T12:52:30;13.07;;;7.53;;
11066;SDS011;29763;50.904;5.530;2023-02-19T12:58:02;14.55;;;8.20;;
11066;SDS011;29763;50.904;5.530;2023-02-19T13:03:04;11.98;;;7.55;;
11066;SDS011;29763;50.904;5.530;2023-02-19T13:05:58;11.30;;;8.07;;
11066;SDS011;29763;50.904;5.530;2023-02-19T13:08:53;14.40;;;8.70;;
11066;SDS011;29763;50.904;5.530;2023-02-19T13:11:32;14.10;;;8.35;;
11066;SDS011;29763;50.904;5.530;2023-02-19T13:14:10;12.07;;;8.25;;
11066;SDS011;29763;50.904;5.530;2023-02-19T13:16:59;14.13;;;8.25;;
11066;SDS011;29763;50.904;5.530;2023-02-19T13:19:43;12.82;;;8.45;;
11066;SDS011;29763;50.904;5.530;2023-02-19T13:22:34;12.52;;;8.27;;
11066;SDS011;29763;50.904;5.530;2023-02-19T13:28:28;15.18;;;8.98;;
11066;SDS011;29763;50.904;5.530;2023-02-19T13:37:32;12.82;;;8.98;;
11066;SDS011;29763;50.904;5.530;2023-02-19T13:40:01;12.68;;;8.32;;
11066;SDS011;29763;50.904;5.530;2023-02-19T13:42:46;13.02;;;9.40;;
11066;SDS011;29763;50.904;5.530;2023-02-19T13:45:20;14.63;;;9.00;;
11066;SDS011;29763;50.904;5.530;2023-02-19T13:50:23;11.27;;;8.05;;
11066;SDS011;29763;50.904;5.530;2023-02-19T13:53:45;10.43;;;8.02;;
11066;SDS011;29763;50.904;5.530;2023-02-19T13:56:02;12.50;;;8.20;;
11066;SDS011;29763;50.904;5.530;2023-02-19T14:12:20;12.60;;;9.00;;
11066;SDS011;29763;50.904;5.530;2023-02-19T14:14:54;12.07;;;9.02;;
11066;SDS011;29763;50.904;5.530;2023-02-19T14:17:29;13.90;;;9.65;;
11066;SDS011;29763;50.904;5.530;2023-02-19T14:23:00;13.43;;;9.80;;
11066;SDS011;29763;50.904;5.530;2023-02-19T14:25:40;13.35;;;10.18;;
11066;SDS011;29763;50.904;5.530;2023-02-19T14:28:17;14.43;;;10.18;;
11066;SDS011;29763;50.904;5.530;2023-02-19T14:33:51;15.80;;;10.25;;
11066;SDS011;29763;50.904;5.530;2023-02-19T14:39:21;13.05;;;8.23;;
11066;SDS011;29763;50.904;5.530;2023-02-19T14:42:34;11.75;;;8.32;;
11066;SDS011;29763;50.904;5.530;2023-02-19T14:47:21;9.98;;;7.25;;
11066;SDS011;29763;50.904;5.530;2023-02-19T14:52:36;11.43;;;7.35;;
11066;SDS011;29763;50.904;5.530;2023-02-19T14:57:57;9.07;;;6.80;;
11066;SDS011;29763;50.904;5.530;2023-02-19T15:00:29;11.70;;;7.20;;
11066;SDS011;29763;50.904;5.530;2023-02-19T15:02:59;10.40;;;6.97;;
11066;SDS011;29763;50.904;5.530;2023-02-19T15:05:30;6.57;;;5.82;;
11066;SDS011;29763;50.904;5.530;2023-02-19T15:08:17;9.47;;;6.27;;
11066;SDS011;29763;50.904;5.530;2023-02-19T15:10:50;8.15;;;5.82;;
11066;SDS011;29763;50.904;5.530;2023-02-19T15:13:18;6.47;;;5.53;;
11066;SDS011;29763;50.904;5.530;2023-02-19T15:15:50;8.52;;;5.93;;
11066;SDS011;29763;50.904;5.530;2023-02-19T15:18:17;9.65;;;6.30;;
11066;SDS011;29763;50.904;5.530;2023-02-19T15:20:45;7.75;;;6.32;;
11066;SDS011;29763;50.904;5.530;2023-02-19T15:23:14;8.70;;;6.40;;
11066;SDS011;29763;50.904;5.530;2023-02-19T15:25:47;10.10;;;6.57;;
11066;SDS011;29763;50.904;5.530;2023-02-19T15:28:32;10.32;;;6.15;;
11066;SDS011;29763;50.904;5.530;2023-02-19T15:33:24;8.25;;;6.03;;
11066;SDS011;29763;50.904;5.530;2023-02-19T15:36:01;8.82;;;5.72;;
11066;SDS011;29763;50.904;5.530;2023-02-19T15:38:29;9.43;;;5.90;;
11066;SDS011;29763;50.904;5.530;2023-02-19T15:40:57;10.82;;;6.85;;
11066;SDS011;29763;50.904;5.530;2023-02-19T15:46:10;7.13;;;5.78;;
11066;SDS011;29763;50.904;5.530;2023-02-19T15:48:55;8.52;;;5.45;;
11066;SDS011;29763;50.904;5.530;2023-02-19T15:51:28;9.60;;;5.72;;
11066;SDS011;29763;50.904;5.530;2023-02-19T15:54:00;7.68;;;5.25;;
11066;SDS011;29763;50.904;5.530;2023-02-19T15:56:39;9.05;;;5.70;;
11066;SDS011;29763;50.904;5.530;2023-02-19T15:59:51;6.10;;;4.70;;
11066;SDS011;29763;50.904;5.530;2023-02-19T16:02:04;5.35;;;4.20;;
11066;SDS011;29763;50.904;5.530;2023-02-19T16:04:35;7.00;;;4.20;;
11066;SDS011;29763;50.904;5.530;2023-02-19T16:07:02;6.45;;;4.28;;
11066;SDS011;29763;50.904;5.530;2023-02-19T16:11:59;6.10;;;3.53;;
11066;SDS011;29763;50.904;5.530;2023-02-19T16:22:26;3.80;;;2.92;;
11066;SDS011;29763;50.904;5.530;2023-02-19T16:24:55;5.63;;;3.08;;
11066;SDS011;29763;50.904;5.530;2023-02-19T16:35:55;4.13;;;3.30;;
11066;SDS011;29763;50.904;5.530;2023-02-19T16:38:22;5.97;;;4.00;;
11066;SDS011;29763;50.904;5.530;2023-02-19T16:45:46;3.58;;;3.22;;
11066;SDS011;29763;50.904;5.530;2023-02-19T16:48:12;4.88;;;3.70;;
11066;SDS011;29763;50.904;5.530;2023-02-19T16:50:38;4.50;;;3.20;;
11066;SDS011;29763;50.904;5.530;2023-02-19T16:53:21;4.22;;;3.58;;
11066;SDS011;29763;50.904;5.530;2023-02-19T16:55:52;5.38;;;3.50;;
11066;SDS011;29763;50.904;5.530;2023-02-19T16:58:18;4.78;;;3.42;;
11066;SDS011;29763;50.904;5.530;2023-02-19T17:00:45;4.22;;;3.58;;
11066;SDS011;29763;50.904;5.530;2023-02-19T17:03:12;4.53;;;3.97;;
11066;SDS011;29763;50.904;5.530;2023-02-19T17:05:40;4.40;;;3.20;;
11066;SDS011;29763;50.904;5.530;2023-02-19T17:08:28;4.65;;;3.42;;
11066;SDS011;29763;50.904;5.530;2023-02-19T17:10:52;5.85;;;3.70;;
11066;SDS011;29763;50.904;5.530;2023-02-19T17:13:18;3.90;;;3.47;;
11066;SDS011;29763;50.904;5.530;2023-02-19T17:15:44;5.97;;;3.50;;
11066;SDS011;29763;50.904;5.530;2023-02-19T17:18:10;3.30;;;3.00;;
11066;SDS011;29763;50.904;5.530;2023-02-19T17:20:36;5.20;;;3.35;;
11066;SDS011;29763;50.904;5.530;2023-02-19T17:23:02;3.85;;;3.45;;
11066;SDS011;29763;50.904;5.530;2023-02-19T17:25:28;6.53;;;3.58;;
11066;SDS011;29763;50.904;5.530;2023-02-19T17:27:54;4.25;;;3.50;;
11066;SDS011;29763;50.904;5.530;2023-02-19T17:30:27;3.85;;;3.45;;
11066;SDS011;29763;50.904;5.530;2023-02-19T17:32:55;4.50;;;3.30;;
11066;SDS011;29763;50.904;5.530;2023-02-19T17:35:21;3.40;;;3.10;;
11066;SDS011;29763;50.904;5.530;2023-02-19T17:37:47;3.83;;;2.97;;
11066;SDS011;29763;50.904;5.530;2023-02-19T17:40:20;3.10;;;2.65;;
11066;SDS011;29763;50.904;5.530;2023-02-19T17:42:51;3.10;;;2.80;;
11066;SDS011;29763;50.904;5.530;2023-02-19T17:45:18;2.95;;;2.60;;
11066;SDS011;29763;50.904;5.530;2023-02-19T17:47:44;3.33;;;2.90;;
11066;SDS011;29763;50.904;5.530;2023-02-19T17:50:13;3.35;;;2.50;;
11066;SDS011;29763;50.904;5.530;2023-02-19T17:52:47;3.35;;;3.05;;
11066;SDS011;29763;50.904;5.530;2023-02-19T17:55:14;3.90;;;3.15;;
11066;SDS011;29763;50.904;5.530;2023-02-19T17:57:42;4.07;;;3.17;;
11066;SDS011;29763;50.904;5.530;2023-02-19T18:00:09;4.65;;;3.00;;
11066;SDS011;29763;50.904;5.530;2023-02-19T18:02:38;4.47;;;3.30;;
11066;SDS011;29763;50.904;5.530;2023-02-19T18:05:05;3.67;;;2.65;;
11066;SDS011;29763;50.904;5.530;2023-02-19T18:07:31;3.17;;;2.88;;